Time;durP1;ratioP1;P1;durP2;ratioP2;P2;SDS_P1;SDS_P2;PMS_P1;PMS_P2;Temp;Humidity;BMP_temperature;BMP_pressure;BME280_temperature;BME280_humidity;BME280_pressure;Samples;Min_cycle;Max_cycle;Signal;HPM_P1;HPM_P2
2022/01/06 00:00:42;;;;;;;40.43;17.43;;;2.00;99.90;;;;;;10246393;28;20038;-86
2022/01/06 00:05:42;;;;;;;35.50;15.10;;;1.90;99.90;;;;;;10240726;28;20482;-86
2022/01/06 00:10:46;;;;;;;23.60;12.43;;;2.00;99.90;;;;;;10252637;28;20028;-85
2022/01/06 00:26:13;;;;;;;32.60;12.77;;;1.90;99.90;;;;;;10253002;28;20039;-85
2022/01/06 00:31:13;;;;;;;36.17;14.70;;;1.90;99.90;;;;;;10246796;28;20051;-87
2022/01/06 00:36:14;;;;;;;31.33;12.90;;;1.90;99.90;;;;;;10240612;28;20097;-86
2022/01/06 00:41:15;;;;;;;24.87;11.77;;;1.80;99.90;;;;;;10232088;28;20099;-85
2022/01/06 00:46:15;;;;;;;29.50;13.23;;;1.80;99.90;;;;;;10247957;28;20027;-88
2022/01/06 00:51:16;;;;;;;26.00;12.33;;;1.70;99.90;;;;;;10234029;28;20104;-87
2022/01/06 00:56:17;;;;;;;22.13;11.03;;;1.70;99.90;;;;;;10252549;28;20126;-86
2022/01/06 01:01:18;;;;;;;31.83;12.20;;;1.70;99.90;;;;;;10255574;28;20121;-86
2022/01/06 01:06:18;;;;;;;21.40;9.57;;;1.70;99.90;;;;;;10255820;28;20035;-86
2022/01/06 01:11:19;;;;;;;26.60;9.13;;;1.70;99.90;;;;;;10255889;28;20094;-85
2022/01/06 01:16:25;;;;;;;23.40;9.87;;;1.70;99.90;;;;;;10260163;28;20039;-86
2022/01/06 01:21:27;;;;;;;25.20;10.68;;;1.70;99.90;;;;;;10232790;28;20466;-86
2022/01/06 01:26:28;;;;;;;28.20;11.47;;;1.70;99.90;;;;;;10245085;28;20437;-86
2022/01/06 01:31:35;;;;;;;25.33;10.53;;;1.70;99.90;;;;;;10231341;28;20055;-85
2022/01/06 01:36:36;;;;;;;29.80;12.07;;;1.70;99.90;;;;;;10251262;28;20039;-86
2022/01/06 01:41:37;;;;;;;31.33;12.77;;;1.80;99.90;;;;;;10229998;28;20039;-86
2022/01/06 01:46:44;;;;;;;31.33;13.77;;;1.80;99.90;;;;;;10233324;28;20078;-86
2022/01/06 01:51:45;;;;;;;24.27;11.50;;;1.80;99.90;;;;;;10248064;28;20034;-86
2022/01/06 01:56:46;;;;;;;36.30;15.50;;;1.70;99.90;;;;;;10234925;28;20625;-86
2022/01/06 02:01:47;;;;;;;33.53;14.27;;;1.70;99.90;;;;;;10252698;28;20042;-86
2022/01/06 02:06:47;;;;;;;35.27;16.60;;;1.60;99.90;;;;;;10250887;28;20031;-86
2022/01/06 02:11:48;;;;;;;31.67;14.23;;;1.70;99.90;;;;;;10247459;28;20031;-88
2022/01/06 02:16:49;;;;;;;36.17;15.47;;;1.70;99.90;;;;;;10246181;28;20070;-86
2022/01/06 02:21:49;;;;;;;34.90;17.23;;;1.70;99.90;;;;;;10245386;28;20039;-86
2022/01/06 02:26:50;;;;;;;22.33;12.37;;;1.80;99.90;;;;;;10264000;28;20090;-85
2022/01/06 02:31:51;;;;;;;29.43;15.13;;;1.80;99.90;;;;;;10246854;28;20039;-86
2022/01/06 02:36:51;;;;;;;36.60;17.47;;;1.80;99.90;;;;;;10244939;28;20382;-86
2022/01/06 02:41:52;;;;;;;31.93;15.00;;;1.80;99.90;;;;;;10247506;28;20502;-86
2022/01/06 02:46:53;;;;;;;31.43;14.83;;;1.80;99.90;;;;;;10245613;28;20110;-87
2022/01/06 02:51:54;;;;;;;30.37;14.07;;;1.80;99.90;;;;;;10245167;28;20107;-85
2022/01/06 02:56:55;;;;;;;22.50;10.97;;;1.80;99.90;;;;;;10249125;28;20038;-85
2022/01/06 03:01:56;;;;;;;25.07;11.60;;;1.90;99.90;;;;;;10243778;28;20412;-87
2022/01/06 03:06:57;;;;;;;22.23;10.50;;;1.90;99.90;;;;;;10242426;28;20042;-85
2022/01/06 03:11:57;;;;;;;22.20;10.53;;;1.90;99.90;;;;;;10247367;28;20397;-86
2022/01/06 03:16:58;;;;;;;21.70;10.00;;;1.90;99.90;;;;;;10226242;28;20019;-85
2022/01/06 03:21:59;;;;;;;21.73;9.27;;;1.90;99.90;;;;;;10251401;28;20442;-86
2022/01/06 03:26:59;;;;;;;21.93;11.80;;;2.00;99.90;;;;;;10247061;28;20023;-85
2022/01/06 03:32:00;;;;;;;35.13;16.97;;;2.00;99.90;;;;;;10249440;28;20043;-85
2022/01/06 03:37:02;;;;;;;26.90;14.23;;;2.00;99.90;;;;;;10262037;28;20022;-85
2022/01/06 03:42:03;;;;;;;26.87;13.90;;;2.00;99.90;;;;;;10257429;28;20043;-86
2022/01/06 03:47:05;;;;;;;25.10;14.30;;;2.10;99.90;;;;;;10250549;28;20037;-87
2022/01/06 03:52:06;;;;;;;25.67;13.70;;;2.10;99.90;;;;;;10253962;28;20035;-87
2022/01/06 03:57:07;;;;;;;22.27;10.93;;;2.10;99.90;;;;;;10261693;28;20035;-86
2022/01/06 04:02:07;;;;;;;20.00;10.80;;;2.10;99.90;;;;;;10253534;28;20039;-87
2022/01/06 04:07:08;;;;;;;27.17;12.30;;;2.10;99.90;;;;;;10259577;28;20030;-87
2022/01/06 04:12:10;;;;;;;24.97;12.20;;;2.10;99.90;;;;;;10233757;28;20057;-87
2022/01/06 04:17:11;;;;;;;33.43;16.10;;;2.10;99.90;;;;;;10251098;28;20082;-88
2022/01/06 04:22:12;;;;;;;29.53;14.27;;;2.20;99.90;;;;;;10259174;28;20039;-87
2022/01/06 04:27:12;;;;;;;20.37;11.10;;;2.20;99.90;;;;;;10250040;28;20113;-88
2022/01/06 04:32:13;;;;;;;21.63;10.13;;;2.20;99.90;;;;;;10246165;28;20055;-86
2022/01/06 04:37:14;;;;;;;23.93;11.10;;;2.20;99.90;;;;;;10253662;28;20024;-86
2022/01/06 04:42:15;;;;;;;18.53;10.33;;;2.10;99.90;;;;;;10245603;28;20044;-87
2022/01/06 04:47:15;;;;;;;22.20;11.43;;;2.10;99.90;;;;;;10257937;28;20380;-87
2022/01/06 04:52:16;;;;;;;23.97;9.80;;;2.10;99.90;;;;;;10259832;28;20391;-87
2022/01/06 04:57:17;;;;;;;23.10;10.57;;;2.10;99.90;;;;;;10248602;28;20399;-89
2022/01/06 05:02:18;;;;;;;21.90;10.10;;;2.10;99.90;;;;;;10231280;28;20046;-85
2022/01/06 05:07:19;;;;;;;23.07;11.03;;;2.00;99.90;;;;;;10251508;28;20031;-86
2022/01/06 05:12:19;;;;;;;22.40;11.50;;;2.10;99.90;;;;;;10248736;28;20572;-86
2022/01/06 05:17:20;;;;;;;28.17;13.37;;;2.10;99.90;;;;;;10251499;28;20117;-86
2022/01/06 05:22:21;;;;;;;30.13;14.73;;;2.10;99.90;;;;;;10250115;28;20128;-86
2022/01/06 05:27:21;;;;;;;28.57;14.70;;;2.10;99.90;;;;;;10241125;28;20121;-86
2022/01/06 05:32:22;;;;;;;29.23;15.67;;;2.10;99.90;;;;;;10254778;28;20055;-86
2022/01/06 05:37:23;;;;;;;29.80;13.87;;;2.10;99.90;;;;;;10246303;28;20042;-85
2022/01/06 05:42:24;;;;;;;22.80;13.00;;;2.20;99.90;;;;;;10226874;28;20106;-86
2022/01/06 05:47:24;;;;;;;25.13;13.27;;;2.20;99.90;;;;;;10234190;28;20039;-85
2022/01/06 05:52:25;;;;;;;35.27;16.50;;;2.20;99.90;;;;;;10249446;28;20483;-86
2022/01/06 05:57:26;;;;;;;27.13;14.30;;;2.20;99.90;;;;;;10254291;28;20069;-85
2022/01/06 06:02:26;;;;;;;27.10;14.23;;;2.20;99.90;;;;;;10261251;28;20085;-85
2022/01/06 06:07:27;;;;;;;29.53;15.73;;;2.30;99.90;;;;;;10266526;28;20031;-82
2022/01/06 06:12:28;;;;;;;22.13;13.27;;;2.20;99.90;;;;;;10238566;28;20138;-87
2022/01/06 06:17:29;;;;;;;25.53;13.20;;;2.20;99.90;;;;;;10258167;28;20019;-84
2022/01/06 06:22:29;;;;;;;25.57;12.40;;;2.20;99.90;;;;;;10267643;28;20049;-86
2022/01/06 06:27:30;;;;;;;27.73;14.17;;;2.10;99.90;;;;;;10281516;28;20033;-86
2022/01/06 06:32:33;;;;;;;28.20;14.20;;;2.10;99.90;;;;;;10263733;28;20067;-87
2022/01/06 06:37:34;;;;;;;27.67;12.30;;;2.20;99.90;;;;;;10262641;28;20047;-87
2022/01/06 06:42:35;;;;;;;28.60;12.37;;;2.10;99.90;;;;;;10247565;28;20062;-84
2022/01/06 06:47:35;;;;;;;28.57;14.27;;;2.20;99.90;;;;;;10231550;28;20034;-85
2022/01/06 06:52:36;;;;;;;24.87;13.90;;;2.10;99.90;;;;;;10257077;28;20042;-85
2022/01/06 06:57:37;;;;;;;30.03;15.80;;;2.10;99.90;;;;;;10266466;28;20050;-87
2022/01/06 07:02:38;;;;;;;35.43;16.43;;;2.10;99.90;;;;;;10274066;28;20043;-86
2022/01/06 07:07:38;;;;;;;35.10;17.60;;;2.20;99.90;;;;;;10272844;28;20035;-85
2022/01/06 07:12:40;;;;;;;30.30;16.67;;;2.20;99.90;;;;;;10271804;28;20398;-86
2022/01/06 07:17:41;;;;;;;37.27;18.10;;;2.10;99.90;;;;;;10288361;28;20039;-84
2022/01/06 07:22:42;;;;;;;43.07;21.27;;;2.10;99.90;;;;;;10273534;28;20043;-86
2022/01/06 07:27:43;;;;;;;39.20;22.23;;;2.00;99.90;;;;;;10243648;28;20034;-89
2022/01/06 07:32:48;;;;;;;36.10;19.30;;;2.10;99.90;;;;;;10256892;28;20094;-88
2022/01/06 07:37:49;;;;;;;49.45;23.10;;;2.10;99.90;;;;;;10237026;28;20043;-86
2022/01/06 07:42:51;;;;;;;48.17;22.70;;;2.10;99.90;;;;;;10269237;28;20054;-85
2022/01/06 07:47:56;;;;;;;40.40;17.80;;;2.20;99.90;;;;;;10260146;28;20109;-88
2022/01/06 07:52:57;;;;;;;34.70;17.27;;;2.20;99.90;;;;;;10255977;28;20030;-89
2022/01/06 07:57:58;;;;;;;39.80;21.30;;;2.30;99.90;;;;;;10244207;28;20850;-90
2022/01/06 08:03:02;;;;;;;42.07;21.67;;;2.40;99.90;;;;;;10290366;28;20043;-89
2022/01/06 08:08:03;;;;;;;72.73;28.23;;;2.50;99.90;;;;;;10256639;28;20518;-87
2022/01/06 08:13:04;;;;;;;34.87;16.27;;;2.50;99.90;;;;;;10263933;28;20034;-84
2022/01/06 08:18:04;;;;;;;34.97;16.87;;;2.60;99.90;;;;;;10267480;28;20031;-85
2022/01/06 08:23:06;;;;;;;59.07;23.37;;;2.60;99.90;;;;;;10270430;28;20038;-87
2022/01/06 08:28:07;;;;;;;48.07;22.70;;;2.70;99.90;;;;;;10291100;28;20114;-86
2022/01/06 08:33:08;;;;;;;45.50;19.30;;;2.70;99.90;;;;;;10272818;28;20046;-86
2022/01/06 08:38:08;;;;;;;51.67;23.47;;;2.80;99.90;;;;;;10290439;28;20027;-86
2022/01/06 08:43:09;;;;;;;57.77;25.60;;;2.90;99.90;;;;;;10290088;28;20061;-86
2022/01/06 08:48:10;;;;;;;46.90;21.70;;;3.00;99.90;;;;;;10290000;28;20027;-88
2022/01/06 08:53:10;;;;;;;26.93;12.30;;;3.30;99.90;;;;;;10289718;28;20053;-86
2022/01/06 08:58:11;;;;;;;41.73;17.33;;;3.60;99.90;;;;;;10289637;28;20038;-85
2022/01/06 09:03:12;;;;;;;27.20;13.10;;;3.40;99.90;;;;;;10289659;28;20043;-87
2022/01/06 09:08:13;;;;;;;29.47;12.67;;;3.20;99.90;;;;;;10289578;28;20386;-85
2022/01/06 09:13:13;;;;;;;32.70;13.23;;;3.10;99.90;;;;;;10289059;28;20035;-87
2022/01/06 09:18:14;;;;;;;33.77;14.50;;;3.10;99.90;;;;;;10271470;28;20015;-86
2022/01/06 09:23:15;;;;;;;30.30;13.50;;;3.00;99.90;;;;;;10288838;28;20042;-89
2022/01/06 09:28:15;;;;;;;30.17;13.80;;;2.90;99.90;;;;;;10287911;28;20169;-87
2022/01/06 09:33:18;;;;;;;30.90;12.77;;;2.80;99.90;;;;;;10288493;28;20034;-86
2022/01/06 09:38:19;;;;;;;38.37;17.20;;;2.80;99.90;;;;;;10259642;28;20106;-87
2022/01/06 09:43:26;;;;;;;61.70;27.80;;;2.80;99.90;;;;;;10316287;28;20030;-86
2022/01/06 09:48:30;;;;;;;44.63;21.40;;;2.70;99.90;;;;;;10290329;28;20039;-86
2022/01/06 09:53:31;;;;;;;29.17;12.73;;;2.50;99.90;;;;;;10300931;28;20034;-87
2022/01/06 09:58:32;;;;;;;24.30;10.20;;;2.40;99.90;;;;;;10292983;28;20115;-88
2022/01/06 10:03:37;;;;;;;25.23;10.20;;;2.30;99.90;;;;;;10315039;28;20046;-85
2022/01/06 10:08:38;;;;;;;42.83;16.40;;;2.30;99.90;;;;;;10307181;28;20689;-85
2022/01/06 10:13:40;;;;;;;32.67;12.10;;;2.30;99.90;;;;;;10295103;28;20036;-91
2022/01/06 10:18:53;;;;;;;16.43;6.30;;;2.30;99.90;;;;;;10273602;28;20681;-90
2022/01/06 10:24:08;;;;;;;38.20;14.83;;;2.20;99.90;;;;;;10288185;28;20104;-86
2022/01/06 10:29:09;;;;;;;31.67;12.97;;;2.40;99.90;;;;;;10308979;28;20054;-86
2022/01/06 10:34:10;;;;;;;40.23;18.70;;;2.70;99.90;;;;;;10304692;28;20112;-84
2022/01/06 10:39:10;;;;;;;16.67;7.67;;;2.60;99.90;;;;;;10326420;28;20065;-83
2022/01/06 10:44:13;;;;;;;10.33;5.07;;;2.50;99.90;;;;;;10326455;28;20402;-85
2022/01/06 10:49:16;;;;;;;17.27;7.57;;;2.40;99.90;;;;;;10310134;28;20072;-83
2022/01/06 10:54:22;;;;;;;8.20;4.40;;;2.40;99.90;;;;;;10298862;28;20454;-82
2022/01/06 10:59:29;;;;;;;5.03;3.35;;;2.40;99.90;;;;;;10325542;28;20026;-86
2022/01/06 11:10:27;;;;;;;8.73;4.65;;;2.20;99.90;;;;;;10282377;28;20035;-85
2022/01/06 11:15:27;;;;;;;4.70;2.30;;;2.20;99.90;;;;;;10286327;28;20398;-83
2022/01/06 11:21:22;;;;;;;6.90;2.93;;;1.80;99.90;;;;;;10286277;28;20049;-84
2022/01/06 11:27:07;;;;;;;6.50;4.07;;;1.40;99.90;;;;;;10274710;28;20529;-83
2022/01/06 11:32:20;;;;;;;8.80;3.87;;;1.30;99.90;;;;;;10267819;28;20113;-85
2022/01/06 11:37:21;;;;;;;5.20;3.03;;;1.10;99.90;;;;;;10289804;28;20035;-85
2022/01/06 11:48:19;;;;;;;6.57;2.47;;;1.00;99.90;;;;;;10271918;28;20031;-83
2022/01/06 11:59:02;;;;;;;3.63;2.00;;;0.90;99.90;;;;;;10275794;28;20043;-84
2022/01/06 12:04:17;;;;;;;9.57;2.67;;;0.70;99.90;;;;;;10266572;28;20070;-86
2022/01/06 12:09:23;;;;;;;11.80;6.03;;;0.70;99.90;;;;;;10256184;28;20475;-83
2022/01/06 12:14:27;;;;;;;8.57;3.40;;;0.70;99.90;;;;;;10273443;28;20386;-84
2022/01/06 12:19:31;;;;;;;5.53;2.50;;;0.80;99.90;;;;;;10267179;28;20132;-83
2022/01/06 12:24:32;;;;;;;4.73;2.60;;;0.80;99.90;;;;;;10246001;28;20046;-84
2022/01/06 12:29:39;;;;;;;4.03;2.10;;;0.80;99.90;;;;;;10258847;28;20034;-82
2022/01/06 12:34:43;;;;;;;5.13;2.53;;;0.90;99.90;;;;;;10261046;28;20031;-81
2022/01/06 12:39:46;;;;;;;6.17;2.73;;;0.80;99.90;;;;;;10275934;28;20652;-80
2022/01/06 12:44:47;;;;;;;6.50;3.00;;;0.60;99.90;;;;;;10279044;28;20038;-83
2022/01/06 12:49:57;;;;;;;4.97;2.97;;;0.60;99.90;;;;;;10283771;28;20038;-83
2022/01/06 12:54:58;;;;;;;22.90;8.40;;;0.70;99.90;;;;;;10285527;28;20038;-80
2022/01/06 12:59:59;;;;;;;11.97;5.53;;;0.70;99.90;;;;;;10308357;28;20475;-82
2022/01/06 13:05:02;;;;;;;15.97;7.57;;;0.70;99.90;;;;;;10284173;28;20045;-81
2022/01/06 13:10:03;;;;;;;6.23;2.50;;;0.70;99.90;;;;;;10298416;28;20029;-85
2022/01/06 13:15:04;;;;;;;7.83;3.10;;;0.60;99.90;;;;;;10296382;28;20103;-83
2022/01/06 13:20:08;;;;;;;2.23;1.40;;;0.50;99.90;;;;;;10271602;28;20031;-85
2022/01/06 13:25:10;;;;;;;9.73;3.00;;;0.40;99.90;;;;;;10286930;28;20065;-81
2022/01/06 13:30:11;;;;;;;8.40;3.20;;;0.40;99.90;;;;;;10294772;28;20050;-83
2022/01/06 13:35:12;;;;;;;7.10;2.77;;;0.40;99.90;;;;;;10281206;28;20058;-80
2022/01/06 13:40:13;;;;;;;10.13;3.90;;;0.40;99.90;;;;;;10287283;28;20177;-80
2022/01/06 13:51:04;;;;;;;6.73;2.23;;;0.40;99.90;;;;;;10280309;28;20078;-81
2022/01/06 13:56:06;;;;;;;14.87;5.70;;;0.50;99.90;;;;;;10283140;28;20374;-80
2022/01/06 14:01:10;;;;;;;34.93;11.27;;;0.40;99.90;;;;;;10278316;28;20054;-83
2022/01/06 14:12:12;;;;;;;17.73;6.67;;;0.40;99.90;;;;;;10231117;29;20079;-81
2022/01/06 14:17:13;;;;;;;6.43;2.40;;;0.40;99.90;;;;;;10207464;29;20035;-81
2022/01/06 14:22:13;;;;;;;15.93;5.73;;;0.30;99.90;;;;;;10213674;29;20057;-80
2022/01/06 14:27:14;;;;;;;23.10;8.90;;;0.20;99.90;;;;;;10227506;28;20107;-84
2022/01/06 14:32:15;;;;;;;24.03;8.60;;;0.20;99.90;;;;;;10250780;28;20776;-82
2022/01/06 14:37:15;;;;;;;49.60;19.80;;;0.10;99.90;;;;;;10230979;28;20032;-82
2022/01/06 14:42:16;;;;;;;46.17;18.27;;;0.10;99.90;;;;;;10268972;28;20082;-82
2022/01/06 14:47:18;;;;;;;22.67;8.13;;;0.10;99.90;;;;;;10281807;28;20478;-85
2022/01/06 14:58:20;;;;;;;48.50;16.33;;;-0.10;99.90;;;;;;10245781;28;20539;-86
2022/01/06 15:03:22;;;;;;;50.33;19.53;;;-0.20;99.90;;;;;;10275771;28;20038;-86
2022/01/06 15:08:23;;;;;;;59.03;20.10;;;-0.30;99.90;;;;;;10278534;28;20023;-83
2022/01/06 15:13:24;;;;;;;53.03;19.63;;;-0.40;99.90;;;;;;10264784;28;20110;-84
2022/01/06 15:18:25;;;;;;;44.47;15.00;;;-0.40;99.90;;;;;;10273067;28;20035;-86
2022/01/06 15:23:26;;;;;;;22.27;8.80;;;-0.50;99.90;;;;;;10266327;28;20047;-84
2022/01/06 15:28:26;;;;;;;20.50;7.30;;;-0.60;99.90;;;;;;10278775;28;20486;-83
2022/01/06 15:33:27;;;;;;;14.83;5.53;;;-0.60;99.90;;;;;;10265101;28;20527;-86
2022/01/06 15:38:28;;;;;;;20.03;6.27;;;-0.70;99.90;;;;;;10255310;28;20031;-84
2022/01/06 15:43:29;;;;;;;13.53;4.97;;;-0.80;99.90;;;;;;10252217;28;20043;-84
2022/01/06 15:48:32;;;;;;;14.70;6.00;;;-0.80;99.90;;;;;;10263191;28;20097;-84
2022/01/06 15:53:33;;;;;;;19.67;6.30;;;-0.80;99.90;;;;;;10269674;28;20030;-83
2022/01/06 15:58:34;;;;;;;31.10;11.20;;;-0.80;99.90;;;;;;10291618;28;20052;-84
2022/01/06 16:08:55;;;;;;;18.20;6.37;;;-0.60;99.90;;;;;;10277889;28;20042;-82
2022/01/06 16:31:00;;;;;;;17.67;7.90;;;-0.60;99.90;;;;;;11376143;23;20554;-85
2022/01/06 16:36:01;;;;;;;58.20;21.03;;;-0.60;99.90;;;;;;10290234;28;20019;-85
2022/01/06 16:41:02;;;;;;;44.03;15.40;;;-0.50;99.90;;;;;;10271678;28;20035;-85
2022/01/06 16:46:09;;;;;;;33.37;11.07;;;-0.50;99.90;;;;;;10278582;28;20045;-83
2022/01/06 16:51:10;;;;;;;27.27;10.60;;;-0.50;99.90;;;;;;10270727;28;20121;-85
2022/01/06 17:01:49;;;;;;;23.43;10.30;;;-0.60;99.90;;;;;;10269837;28;20126;-81
2022/01/06 17:06:50;;;;;;;17.27;5.53;;;-0.80;99.90;;;;;;10288025;28;20450;-84
2022/01/06 17:11:51;;;;;;;30.50;11.23;;;-1.00;99.90;;;;;;10281578;28;20027;-89
2022/01/06 17:16:51;;;;;;;25.87;9.20;;;-1.10;99.90;;;;;;10268126;28;20026;-86
2022/01/06 17:21:52;;;;;;;93.70;34.83;;;-1.20;99.90;;;;;;10288605;28;20049;-86
2022/01/06 17:26:53;;;;;;;52.43;19.40;;;-1.30;99.90;;;;;;10257771;28;20039;-84
2022/01/06 17:31:54;;;;;;;15.57;5.43;;;-1.40;99.90;;;;;;10247820;29;20062;-87
2022/01/06 17:36:55;;;;;;;17.40;6.57;;;-1.40;99.90;;;;;;10230582;29;20364;-85
2022/01/06 17:41:56;;;;;;;25.60;9.10;;;-1.40;99.90;;;;;;10247157;29;20069;-85
2022/01/06 17:46:57;;;;;;;92.67;32.53;;;-1.30;99.90;;;;;;10229448;29;20031;-85
2022/01/06 17:51:57;;;;;;;23.53;8.50;;;-1.30;99.90;;;;;;10233238;29;20059;-85
2022/01/06 17:56:58;;;;;;;11.93;5.23;;;-1.30;99.90;;;;;;10246071;29;20059;-84
2022/01/06 18:02:00;;;;;;;23.30;8.00;;;-1.30;99.90;;;;;;10245321;29;20399;-87
2022/01/06 18:07:03;;;;;;;51.43;18.93;;;-1.30;99.90;;;;;;10222761;29;20130;-84
2022/01/06 18:12:09;;;;;;;28.43;11.53;;;-1.30;99.90;;;;;;10210455;29;20027;-86
2022/01/06 18:17:10;;;;;;;35.00;14.23;;;-1.30;99.90;;;;;;10246109;29;20118;-87
2022/01/06 18:22:11;;;;;;;31.70;11.17;;;-1.30;99.90;;;;;;10229429;29;20031;-85
2022/01/06 18:27:11;;;;;;;28.70;9.83;;;-1.20;99.90;;;;;;10246976;29;20383;-86
2022/01/06 18:32:12;;;;;;;25.20;8.50;;;-1.30;99.90;;;;;;10254056;28;20618;-84
2022/01/06 18:37:13;;;;;;;20.03;6.10;;;-1.20;99.90;;;;;;10247063;29;20054;-87
2022/01/06 18:42:14;;;;;;;25.00;7.80;;;-1.20;99.90;;;;;;10228486;29;20109;-85
2022/01/06 18:47:14;;;;;;;25.57;9.37;;;-1.20;99.90;;;;;;10247283;29;20039;-85
2022/01/06 18:52:21;;;;;;;23.30;8.20;;;-1.30;99.90;;;;;;10228182;29;20042;-85
2022/01/06 18:57:25;;;;;;;20.57;8.30;;;-1.20;99.90;;;;;;10234182;29;20066;-85
2022/01/06 19:02:27;;;;;;;17.00;5.43;;;-1.30;99.90;;;;;;10235741;29;20039;-85
2022/01/06 19:07:28;;;;;;;23.00;7.73;;;-1.40;99.90;;;;;;10235576;29;20105;-88
2022/01/06 19:12:32;;;;;;;27.23;8.87;;;-1.50;99.90;;;;;;10253149;29;20094;-87
2022/01/06 19:17:33;;;;;;;26.53;8.50;;;-1.60;99.90;;;;;;10235565;29;20102;-85
2022/01/06 19:22:33;;;;;;;19.07;8.40;;;-1.70;99.90;;;;;;10251726;29;20090;-87
2022/01/06 19:27:34;;;;;;;19.57;8.10;;;-1.70;99.90;;;;;;10253238;29;20031;-86
2022/01/06 19:32:37;;;;;;;19.90;7.60;;;-1.80;99.90;;;;;;10244001;29;20062;-87
2022/01/06 19:37:38;;;;;;;19.27;5.53;;;-1.90;99.90;;;;;;10252470;29;20031;-85
2022/01/06 19:42:41;;;;;;;18.40;6.27;;;-1.90;99.90;;;;;;10251639;29;20039;-87
2022/01/06 19:47:42;;;;;;;17.70;5.57;;;-2.00;99.90;;;;;;10251509;29;20035;-86
2022/01/06 19:52:44;;;;;;;22.03;6.30;;;-2.00;99.90;;;;;;10251841;28;20127;-85
2022/01/06 19:57:47;;;;;;;13.37;4.70;;;-2.10;99.90;;;;;;10251442;29;20043;-88
2022/01/06 20:02:48;;;;;;;12.47;4.27;;;-2.10;99.90;;;;;;10251138;28;20403;-85
2022/01/06 20:07:50;;;;;;;13.77;4.80;;;-2.20;99.90;;;;;;10251444;28;20031;-84
2022/01/06 20:12:51;;;;;;;11.93;4.60;;;-2.20;99.90;;;;;;10252437;29;20079;-86
2022/01/06 20:17:52;;;;;;;14.40;5.40;;;-2.30;99.90;;;;;;10250771;29;20065;-84
2022/01/06 20:22:54;;;;;;;12.90;4.50;;;-2.30;99.90;;;;;;10250477;29;20034;-86
2022/01/06 20:28:05;;;;;;;15.90;4.47;;;-2.40;99.90;;;;;;10231489;29;20056;-83
2022/01/06 20:33:05;;;;;;;12.80;4.60;;;-2.40;99.90;;;;;;10217350;29;20056;-86
2022/01/06 20:44:08;;;;;;;12.53;5.00;;;-2.50;99.90;;;;;;10248230;29;20051;-86
2022/01/06 20:54:29;;;;;;;20.03;6.40;;;-2.60;99.90;;;;;;10246753;28;20483;-84
2022/01/06 20:59:30;;;;;;;16.97;7.03;;;-2.60;99.90;;;;;;10231191;29;20094;-86
2022/01/06 21:04:34;;;;;;;18.83;7.20;;;-2.70;99.90;;;;;;10246731;29;20108;-84
2022/01/06 21:09:34;;;;;;;16.00;5.90;;;-2.80;99.90;;;;;;10244031;29;20041;-88
2022/01/06 21:14:38;;;;;;;37.07;11.40;;;-2.80;99.90;;;;;;10237191;29;20043;-88
2022/01/06 21:19:40;;;;;;;40.67;11.83;;;-2.90;99.90;;;;;;10243718;28;20039;-83
2022/01/06 21:24:41;;;;;;;71.83;23.43;;;-3.20;99.90;;;;;;10246307;28;20043;-86
2022/01/06 21:29:53;;;;;;;117.60;37.57;;;-3.40;99.90;;;;;;10247825;29;20059;-83
2022/01/06 21:35:04;;;;;;;200.47;57.43;;;-3.60;99.90;;;;;;10243976;29;20031;-84
2022/01/06 21:40:08;;;;;;;251.73;85.43;;;-3.80;99.90;;;;;;10227383;29;20031;-84
2022/01/06 21:45:11;;;;;;;349.17;124.00;;;-4.00;99.90;;;;;;10220930;29;20039;-82
2022/01/06 21:56:24;;;;;;;;;;;-4.20;99.90;;;;;;10246038;29;20031;-83
2022/01/06 22:07:22;;;;;;;;;;;-4.30;99.90;;;;;;10246671;29;20767;-82
2022/01/06 22:12:37;;;;;;;101.10;36.73;;;-4.30;99.90;;;;;;10245602;29;20009;-83
2022/01/06 22:17:39;;;;;;;108.00;43.43;;;-4.40;99.90;;;;;;10246174;29;20110;-84
2022/01/06 22:22:41;;;;;;;138.90;46.27;;;-4.50;99.90;;;;;;10246762;29;20043;-82
2022/01/06 22:27:42;;;;;;;145.57;50.93;;;-4.60;99.90;;;;;;10228283;29;20027;-86
2022/01/06 22:32:45;;;;;;;223.70;78.30;;;-4.70;99.90;;;;;;10256542;28;20051;-83
2022/01/06 22:37:52;;;;;;;339.83;116.23;;;-4.70;99.90;;;;;;10258376;28;20034;-82
2022/01/06 22:42:53;;;;;;;262.33;87.50;;;-4.70;99.90;;;;;;10259358;28;20392;-81
2022/01/06 22:47:54;;;;;;;111.40;43.70;;;-4.80;99.90;;;;;;10259267;28;20046;-82
2022/01/06 22:52:55;;;;;;;102.20;35.17;;;-4.80;99.90;;;;;;10259341;28;20035;-82
2022/01/06 22:57:55;;;;;;;80.63;29.80;;;-4.80;99.90;;;;;;10258496;28;20070;-82
2022/01/06 23:02:58;;;;;;;61.13;24.57;;;-4.80;99.90;;;;;;10240498;28;20046;-82
2022/01/06 23:07:58;;;;;;;58.63;22.47;;;-4.80;99.90;;;;;;10259092;29;20079;-82
2022/01/06 23:12:59;;;;;;;80.10;30.23;;;-4.80;99.90;;;;;;10259094;28;20034;-81
2022/01/06 23:18:01;;;;;;;97.60;37.17;;;-4.90;99.90;;;;;;10227146;29;20034;-82
2022/01/06 23:23:02;;;;;;;117.43;44.27;;;-4.80;99.90;;;;;;10242335;29;20046;-86
2022/01/06 23:28:03;;;;;;;119.47;43.90;;;-4.80;99.90;;;;;;10233002;28;20110;-82
2022/01/06 23:33:04;;;;;;;116.20;42.87;;;-4.70;99.90;;;;;;10249746;28;20059;-82
2022/01/06 23:38:05;;;;;;;144.63;49.87;;;-4.70;99.90;;;;;;10245943;29;20023;-85
2022/01/06 23:43:06;;;;;;;126.10;46.60;;;-4.80;99.90;;;;;;10219925;28;20107;-82
2022/01/06 23:48:06;;;;;;;124.67;46.00;;;-4.90;99.90;;;;;;10242718;29;20023;-86
2022/01/06 23:53:07;;;;;;;120.33;46.03;;;-4.90;99.90;;;;;;10247653;29;20028;-82
2022/01/06 23:58:08;;;;;;;137.97;51.17;;;-4.90;99.90;;;;;;10241905;29;20020;-82
